sensor_id;sensor_type;location;lat;lon;timestamp;temperature;humidity
56761;DHT22;42633;44.494;11.356;2023-04-19T00:02:12;14.00;98.50
56761;DHT22;42633;44.494;11.356;2023-04-19T00:09:17;14.00;98.40
56761;DHT22;42633;44.494;11.356;2023-04-19T00:12:27;14.00;98.40
56761;DHT22;42633;44.494;11.356;2023-04-19T00:15:32;14.00;98.40
56761;DHT22;42633;44.494;11.356;2023-04-19T00:18:37;14.00;98.30
56761;DHT22;42633;44.494;11.356;2023-04-19T00:21:43;14.00;98.20
56761;DHT22;42633;44.494;11.356;2023-04-19T00:24:49;14.00;98.50
56761;DHT22;42633;44.494;11.356;2023-04-19T00:27:54;13.90;98.50
56761;DHT22;42633;44.494;11.356;2023-04-19T00:30:59;13.90;98.50
56761;DHT22;42633;44.494;11.356;2023-04-19T00:34:05;13.90;98.60
56761;DHT22;42633;44.494;11.356;2023-04-19T00:37:10;13.80;98.70
56761;DHT22;42633;44.494;11.356;2023-04-19T00:40:17;13.70;98.80
56761;DHT22;42633;44.494;11.356;2023-04-19T00:43:22;13.70;98.90
56761;DHT22;42633;44.494;11.356;2023-04-19T00:46:28;13.70;99.10
56761;DHT22;42633;44.494;11.356;2023-04-19T00:49:32;13.60;99.20
56761;DHT22;42633;44.494;11.356;2023-04-19T00:52:39;13.60;99.40
56761;DHT22;42633;44.494;11.356;2023-04-19T00:55:47;13.60;99.50
56761;DHT22;42633;44.494;11.356;2023-04-19T00:58:55;13.60;99.60
56761;DHT22;42633;44.494;11.356;2023-04-19T01:02:00;13.50;99.70
56761;DHT22;42633;44.494;11.356;2023-04-19T01:05:09;13.40;99.90
56761;DHT22;42633;44.494;11.356;2023-04-19T01:08:15;13.20;99.90
56761;DHT22;42633;44.494;11.356;2023-04-19T01:11:22;13.20;99.90
56761;DHT22;42633;44.494;11.356;2023-04-19T01:14:27;13.10;99.90
56761;DHT22;42633;44.494;11.356;2023-04-19T01:17:32;13.10;99.90
56761;DHT22;42633;44.494;11.356;2023-04-19T01:20:37;13.10;99.90
56761;DHT22;42633;44.494;11.356;2023-04-19T01:23:44;13.00;99.90
56761;DHT22;42633;44.494;11.356;2023-04-19T01:26:49;13.00;99.90
56761;DHT22;42633;44.494;11.356;2023-04-19T01:29:53;13.00;99.90
56761;DHT22;42633;44.494;11.356;2023-04-19T01:32:58;13.00;99.90
56761;DHT22;42633;44.494;11.356;2023-04-19T01:36:03;13.00;99.90
56761;DHT22;42633;44.494;11.356;2023-04-19T01:39:07;12.90;99.90
56761;DHT22;42633;44.494;11.356;2023-04-19T01:42:37;12.90;99.90
56761;DHT22;42633;44.494;11.356;2023-04-19T01:45:43;12.90;99.90
56761;DHT22;42633;44.494;11.356;2023-04-19T01:48:47;12.90;99.90
56761;DHT22;42633;44.494;11.356;2023-04-19T01:51:51;12.90;99.90
56761;DHT22;42633;44.494;11.356;2023-04-19T01:54:55;13.00;99.90
56761;DHT22;42633;44.494;11.356;2023-04-19T01:58:04;13.00;99.90
56761;DHT22;42633;44.494;11.356;2023-04-19T02:01:31;13.00;99.90
56761;DHT22;42633;44.494;11.356;2023-04-19T02:04:36;13.00;99.90
56761;DHT22;42633;44.494;11.356;2023-04-19T02:07:43;13.00;99.90
56761;DHT22;42633;44.494;11.356;2023-04-19T02:10:48;12.90;99.90
56761;DHT22;42633;44.494;11.356;2023-04-19T02:13:53;12.90;99.90
56761;DHT22;42633;44.494;11.356;2023-04-19T02:16:58;12.90;99.90
56761;DHT22;42633;44.494;11.356;2023-04-19T02:20:04;13.00;99.90
56761;DHT22;42633;44.494;11.356;2023-04-19T02:23:09;13.00;99.90
56761;DHT22;42633;44.494;11.356;2023-04-19T02:26:14;13.00;99.90
56761;DHT22;42633;44.494;11.356;2023-04-19T02:29:21;13.10;99.90
56761;DHT22;42633;44.494;11.356;2023-04-19T02:32:27;13.10;99.90
56761;DHT22;42633;44.494;11.356;2023-04-19T02:35:32;13.10;99.90
56761;DHT22;42633;44.494;11.356;2023-04-19T02:38:36;13.10;99.90
56761;DHT22;42633;44.494;11.356;2023-04-19T02:41:41;13.10;99.90
56761;DHT22;42633;44.494;11.356;2023-04-19T02:44:45;13.10;99.90
56761;DHT22;42633;44.494;11.356;2023-04-19T02:47:49;13.10;99.90
56761;DHT22;42633;44.494;11.356;2023-04-19T02:50:54;13.20;99.90
56761;DHT22;42633;44.494;11.356;2023-04-19T02:53:59;13.20;99.90
56761;DHT22;42633;44.494;11.356;2023-04-19T02:57:03;13.10;99.90
56761;DHT22;42633;44.494;11.356;2023-04-19T03:00:07;13.10;99.90
56761;DHT22;42633;44.494;11.356;2023-04-19T03:03:17;13.10;99.90
56761;DHT22;42633;44.494;11.356;2023-04-19T03:06:21;13.10;99.90
56761;DHT22;42633;44.494;11.356;2023-04-19T03:09:25;13.10;99.90
56761;DHT22;42633;44.494;11.356;2023-04-19T03:12:30;13.00;99.90
56761;DHT22;42633;44.494;11.356;2023-04-19T03:15:35;13.10;99.90
56761;DHT22;42633;44.494;11.356;2023-04-19T03:18:42;13.00;99.90
56761;DHT22;42633;44.494;11.356;2023-04-19T03:21:49;13.00;99.90
56761;DHT22;42633;44.494;11.356;2023-04-19T03:24:56;13.00;99.90
56761;DHT22;42633;44.494;11.356;2023-04-19T03:28:06;12.90;99.90
56761;DHT22;42633;44.494;11.356;2023-04-19T03:31:31;12.90;99.90
56761;DHT22;42633;44.494;11.356;2023-04-19T03:34:36;12.90;99.90
56761;DHT22;42633;44.494;11.356;2023-04-19T03:37:40;12.80;99.90
56761;DHT22;42633;44.494;11.356;2023-04-19T03:40:48;12.70;99.90
56761;DHT22;42633;44.494;11.356;2023-04-19T03:43:55;12.70;99.90
56761;DHT22;42633;44.494;11.356;2023-04-19T03:47:07;12.70;99.90
56761;DHT22;42633;44.494;11.356;2023-04-19T03:50:22;12.70;99.90
56761;DHT22;42633;44.494;11.356;2023-04-19T03:53:33;12.70;99.90
56761;DHT22;42633;44.494;11.356;2023-04-19T03:56:38;12.80;99.90
56761;DHT22;42633;44.494;11.356;2023-04-19T03:59:43;12.80;99.90
56761;DHT22;42633;44.494;11.356;2023-04-19T04:02:48;12.80;99.90
56761;DHT22;42633;44.494;11.356;2023-04-19T04:05:55;12.80;99.90
56761;DHT22;42633;44.494;11.356;2023-04-19T04:09:00;12.80;99.90
56761;DHT22;42633;44.494;11.356;2023-04-19T04:12:05;12.80;99.90
56761;DHT22;42633;44.494;11.356;2023-04-19T04:15:10;12.80;99.90
56761;DHT22;42633;44.494;11.356;2023-04-19T04:18:23;12.80;99.90
56761;DHT22;42633;44.494;11.356;2023-04-19T04:21:30;12.80;99.90
56761;DHT22;42633;44.494;11.356;2023-04-19T04:24:38;12.70;99.90
56761;DHT22;42633;44.494;11.356;2023-04-19T04:28:29;12.60;99.90
56761;DHT22;42633;44.494;11.356;2023-04-19T04:31:34;12.60;99.90
56761;DHT22;42633;44.494;11.356;2023-04-19T04:34:39;12.60;99.90
56761;DHT22;42633;44.494;11.356;2023-04-19T04:37:52;12.70;99.90
56761;DHT22;42633;44.494;11.356;2023-04-19T04:40:57;12.70;99.90
56761;DHT22;42633;44.494;11.356;2023-04-19T04:44:03;12.80;99.90
56761;DHT22;42633;44.494;11.356;2023-04-19T04:47:12;12.80;99.90
56761;DHT22;42633;44.494;11.356;2023-04-19T04:50:23;12.80;99.90
56761;DHT22;42633;44.494;11.356;2023-04-19T04:53:28;12.90;99.90
56761;DHT22;42633;44.494;11.356;2023-04-19T04:56:33;13.00;99.90
56761;DHT22;42633;44.494;11.356;2023-04-19T04:59:37;13.00;99.90
56761;DHT22;42633;44.494;11.356;2023-04-19T05:02:47;13.10;99.90
56761;DHT22;42633;44.494;11.356;2023-04-19T05:05:51;13.30;99.90
56761;DHT22;42633;44.494;11.356;2023-04-19T05:09:21;13.30;99.90
56761;DHT22;42633;44.494;11.356;2023-04-19T05:12:26;13.40;99.90
56761;DHT22;42633;44.494;11.356;2023-04-19T05:15:55;13.40;99.90
56761;DHT22;42633;44.494;11.356;2023-04-19T05:19:02;13.40;99.90
56761;DHT22;42633;44.494;11.356;2023-04-19T05:22:11;13.40;99.90
56761;DHT22;42633;44.494;11.356;2023-04-19T05:25:17;13.40;99.90
56761;DHT22;42633;44.494;11.356;2023-04-19T05:28:22;13.50;99.90
56761;DHT22;42633;44.494;11.356;2023-04-19T05:31:50;13.60;99.90
56761;DHT22;42633;44.494;11.356;2023-04-19T05:35:26;13.60;99.90
56761;DHT22;42633;44.494;11.356;2023-04-19T05:38:32;13.60;99.90
56761;DHT22;42633;44.494;11.356;2023-04-19T05:41:39;13.70;99.90
56761;DHT22;42633;44.494;11.356;2023-04-19T05:44:43;13.60;99.90
56761;DHT22;42633;44.494;11.356;2023-04-19T05:47:51;13.50;99.90
56761;DHT22;42633;44.494;11.356;2023-04-19T05:51:19;13.50;99.90
56761;DHT22;42633;44.494;11.356;2023-04-19T05:54:43;13.60;99.90
56761;DHT22;42633;44.494;11.356;2023-04-19T05:57:52;13.80;99.90
56761;DHT22;42633;44.494;11.356;2023-04-19T06:01:13;14.00;99.80
56761;DHT22;42633;44.494;11.356;2023-04-19T06:04:39;14.20;99.60
56761;DHT22;42633;44.494;11.356;2023-04-19T06:07:47;14.20;99.40
56761;DHT22;42633;44.494;11.356;2023-04-19T06:10:52;14.30;99.30
56761;DHT22;42633;44.494;11.356;2023-04-19T06:14:03;14.30;99.40
56761;DHT22;42633;44.494;11.356;2023-04-19T06:17:08;14.40;99.30
56761;DHT22;42633;44.494;11.356;2023-04-19T06:20:36;14.40;99.30
56761;DHT22;42633;44.494;11.356;2023-04-19T06:23:52;14.50;98.90
56761;DHT22;42633;44.494;11.356;2023-04-19T06:27:05;14.50;98.90
56761;DHT22;42633;44.494;11.356;2023-04-19T06:30:33;14.60;98.80
56761;DHT22;42633;44.494;11.356;2023-04-19T06:45:21;14.90;98.10
56761;DHT22;42633;44.494;11.356;2023-04-19T06:48:37;15.80;97.10
56761;DHT22;42633;44.494;11.356;2023-04-19T06:52:44;15.90;96.90
56761;DHT22;42633;44.494;11.356;2023-04-19T07:19:30;17.10;93.80
56761;DHT22;42633;44.494;11.356;2023-04-19T07:48:36;18.20;92.40
56761;DHT22;42633;44.494;11.356;2023-04-19T08:07:28;18.70;90.70
56761;DHT22;42633;44.494;11.356;2023-04-19T08:21:22;19.00;90.20
56761;DHT22;42633;44.494;11.356;2023-04-19T08:30:16;19.40;88.90
56761;DHT22;42633;44.494;11.356;2023-04-19T08:40:52;20.00;87.10
56761;DHT22;42633;44.494;11.356;2023-04-19T08:55:28;19.90;85.50
56761;DHT22;42633;44.494;11.356;2023-04-19T09:59:26;21.30;82.10
56761;DHT22;42633;44.494;11.356;2023-04-19T10:04:22;21.80;79.90
56761;DHT22;42633;44.494;11.356;2023-04-19T10:18:46;22.20;78.60
56761;DHT22;42633;44.494;11.356;2023-04-19T10:27:11;22.10;78.30
56761;DHT22;42633;44.494;11.356;2023-04-19T10:31:03;21.60;79.00
56761;DHT22;42633;44.494;11.356;2023-04-19T10:41:00;22.20;77.70
56761;DHT22;42633;44.494;11.356;2023-04-19T11:10:32;22.60;75.80
56761;DHT22;42633;44.494;11.356;2023-04-19T11:14:27;22.60;75.20
56761;DHT22;42633;44.494;11.356;2023-04-19T11:23:02;21.90;76.00
56761;DHT22;42633;44.494;11.356;2023-04-19T11:26:58;22.20;76.70
56761;DHT22;42633;44.494;11.356;2023-04-19T12:46:46;23.00;71.70
56761;DHT22;42633;44.494;11.356;2023-04-19T12:57:10;23.90;70.20
56761;DHT22;42633;44.494;11.356;2023-04-19T13:06:54;23.00;70.40
56761;DHT22;42633;44.494;11.356;2023-04-19T13:11:17;22.90;71.10
56761;DHT22;42633;44.494;11.356;2023-04-19T13:15:53;23.20;71.20
56761;DHT22;42633;44.494;11.356;2023-04-19T13:34:25;24.20;68.90
56761;DHT22;42633;44.494;11.356;2023-04-19T13:42:36;24.00;69.10
56761;DHT22;42633;44.494;11.356;2023-04-19T13:46:23;24.00;69.00
56761;DHT22;42633;44.494;11.356;2023-04-19T13:51:29;24.30;68.90
56761;DHT22;42633;44.494;11.356;2023-04-19T13:55:21;23.90;69.00
56761;DHT22;42633;44.494;11.356;2023-04-19T14:03:24;23.80;69.60
56761;DHT22;42633;44.494;11.356;2023-04-19T14:07:11;23.80;69.70
56761;DHT22;42633;44.494;11.356;2023-04-19T14:11:23;23.50;70.20
56761;DHT22;42633;44.494;11.356;2023-04-19T14:15:17;23.40;69.90
56761;DHT22;42633;44.494;11.356;2023-04-19T14:18:48;23.40;70.50
56761;DHT22;42633;44.494;11.356;2023-04-19T14:22:34;23.60;70.00
56761;DHT22;42633;44.494;11.356;2023-04-19T14:26:29;23.40;70.20
56761;DHT22;42633;44.494;11.356;2023-04-19T14:30:57;23.30;70.60
56761;DHT22;42633;44.494;11.356;2023-04-19T14:34:45;22.90;71.20
56761;DHT22;42633;44.494;11.356;2023-04-19T14:39:15;22.80;71.80
56761;DHT22;42633;44.494;11.356;2023-04-19T14:57:02;23.20;71.00
56761;DHT22;42633;44.494;11.356;2023-04-19T15:00:52;23.20;70.80
56761;DHT22;42633;44.494;11.356;2023-04-19T15:08:42;22.90;71.30
56761;DHT22;42633;44.494;11.356;2023-04-19T15:37:06;22.70;72.40
56761;DHT22;42633;44.494;11.356;2023-04-19T15:41:05;22.70;71.80
56761;DHT22;42633;44.494;11.356;2023-04-19T15:49:23;22.50;73.00
56761;DHT22;42633;44.494;11.356;2023-04-19T15:53:45;22.70;73.00
56761;DHT22;42633;44.494;11.356;2023-04-19T15:57:39;22.60;72.30
56761;DHT22;42633;44.494;11.356;2023-04-19T16:01:28;22.20;72.30
56761;DHT22;42633;44.494;11.356;2023-04-19T16:10:15;22.00;74.10
56761;DHT22;42633;44.494;11.356;2023-04-19T16:14:31;21.90;74.70
56761;DHT22;42633;44.494;11.356;2023-04-19T16:18:09;21.80;74.60
56761;DHT22;42633;44.494;11.356;2023-04-19T16:25:16;21.70;74.90
56761;DHT22;42633;44.494;11.356;2023-04-19T16:29:02;21.50;75.10
56761;DHT22;42633;44.494;11.356;2023-04-19T16:32:38;21.50;75.70
56761;DHT22;42633;44.494;11.356;2023-04-19T16:35:46;21.50;76.50
56761;DHT22;42633;44.494;11.356;2023-04-19T16:39:26;21.50;77.00
56761;DHT22;42633;44.494;11.356;2023-04-19T16:43:09;21.40;77.80
56761;DHT22;42633;44.494;11.356;2023-04-19T16:46:44;21.30;78.40
56761;DHT22;42633;44.494;11.356;2023-04-19T16:49:58;21.20;78.50
56761;DHT22;42633;44.494;11.356;2023-04-19T16:54:14;21.00;79.40
56761;DHT22;42633;44.494;11.356;2023-04-19T16:57:35;20.80;81.10
56761;DHT22;42633;44.494;11.356;2023-04-19T17:00:50;20.60;82.10
56761;DHT22;42633;44.494;11.356;2023-04-19T17:05:02;20.50;82.80
56761;DHT22;42633;44.494;11.356;2023-04-19T17:08:14;20.40;83.30
56761;DHT22;42633;44.494;11.356;2023-04-19T17:11:51;20.20;83.60
56761;DHT22;42633;44.494;11.356;2023-04-19T17:20:39;20.10;84.20
56761;DHT22;42633;44.494;11.356;2023-04-19T17:24:26;20.10;84.20
56761;DHT22;42633;44.494;11.356;2023-04-19T17:28:08;19.90;84.70
56761;DHT22;42633;44.494;11.356;2023-04-19T17:37:15;19.70;85.70
56761;DHT22;42633;44.494;11.356;2023-04-19T17:40:33;19.50;86.00
56761;DHT22;42633;44.494;11.356;2023-04-19T17:43:38;19.50;86.60
56761;DHT22;42633;44.494;11.356;2023-04-19T17:46:56;19.30;87.20
56761;DHT22;42633;44.494;11.356;2023-04-19T17:50:15;19.10;88.30
56761;DHT22;42633;44.494;11.356;2023-04-19T17:53:46;18.90;90.30
56761;DHT22;42633;44.494;11.356;2023-04-19T17:57:15;18.70;90.70
56761;DHT22;42633;44.494;11.356;2023-04-19T18:00:24;18.50;91.00
56761;DHT22;42633;44.494;11.356;2023-04-19T18:03:32;18.40;91.00
56761;DHT22;42633;44.494;11.356;2023-04-19T18:06:42;18.30;90.80
56761;DHT22;42633;44.494;11.356;2023-04-19T18:09:51;18.20;91.00
56761;DHT22;42633;44.494;11.356;2023-04-19T18:13:29;17.90;91.80
56761;DHT22;42633;44.494;11.356;2023-04-19T18:16:41;17.80;92.20
56761;DHT22;42633;44.494;11.356;2023-04-19T18:19:45;17.50;92.30
56761;DHT22;42633;44.494;11.356;2023-04-19T18:23:11;17.30;93.20
56761;DHT22;42633;44.494;11.356;2023-04-19T18:26:53;17.20;93.40
56761;DHT22;42633;44.494;11.356;2023-04-19T18:31:25;16.90;94.40
56761;DHT22;42633;44.494;11.356;2023-04-19T18:43:39;16.60;95.80
56761;DHT22;42633;44.494;11.356;2023-04-19T18:47:17;16.60;95.50
56761;DHT22;42633;44.494;11.356;2023-04-19T18:50:39;16.60;95.50
56761;DHT22;42633;44.494;11.356;2023-04-19T18:53:44;16.50;95.50
56761;DHT22;42633;44.494;11.356;2023-04-19T19:07:13;16.40;96.00
56761;DHT22;42633;44.494;11.356;2023-04-19T19:20:42;16.30;96.20
56761;DHT22;42633;44.494;11.356;2023-04-19T20:46:13;15.80;96.70
56761;DHT22;42633;44.494;11.356;2023-04-19T20:59:18;15.60;97.20
56761;DHT22;42633;44.494;11.356;2023-04-19T21:08:33;15.60;97.40
56761;DHT22;42633;44.494;11.356;2023-04-19T21:11:54;15.50;97.70
56761;DHT22;42633;44.494;11.356;2023-04-19T21:15:14;15.50;97.70
56761;DHT22;42633;44.494;11.356;2023-04-19T21:18:45;15.50;98.30
56761;DHT22;42633;44.494;11.356;2023-04-19T21:22:09;15.60;98.40
56761;DHT22;42633;44.494;11.356;2023-04-19T21:26:01;15.60;98.40
56761;DHT22;42633;44.494;11.356;2023-04-19T21:29:23;15.60;99.30
56761;DHT22;42633;44.494;11.356;2023-04-19T21:37:40;15.50;99.90
56761;DHT22;42633;44.494;11.356;2023-04-19T21:41:38;15.40;99.90
56761;DHT22;42633;44.494;11.356;2023-04-19T21:45:17;15.40;99.90
56761;DHT22;42633;44.494;11.356;2023-04-19T21:48:28;15.40;99.90
56761;DHT22;42633;44.494;11.356;2023-04-19T21:51:46;15.20;99.90
56761;DHT22;42633;44.494;11.356;2023-04-19T21:55:33;14.90;99.90
56761;DHT22;42633;44.494;11.356;2023-04-19T21:58:42;14.50;99.90
56761;DHT22;42633;44.494;11.356;2023-04-19T22:01:52;14.30;99.90
56761;DHT22;42633;44.494;11.356;2023-04-19T22:05:04;14.20;99.90
56761;DHT22;42633;44.494;11.356;2023-04-19T22:08:16;14.00;99.90
56761;DHT22;42633;44.494;11.356;2023-04-19T22:11:31;14.00;99.90
56761;DHT22;42633;44.494;11.356;2023-04-19T22:14:38;14.10;99.90
56761;DHT22;42633;44.494;11.356;2023-04-19T22:17:46;14.10;99.90
56761;DHT22;42633;44.494;11.356;2023-04-19T22:20:57;14.00;99.90
56761;DHT22;42633;44.494;11.356;2023-04-19T22:24:49;13.80;99.90
56761;DHT22;42633;44.494;11.356;2023-04-19T22:27:58;13.80;99.90
56761;DHT22;42633;44.494;11.356;2023-04-19T22:31:31;13.80;99.90
56761;DHT22;42633;44.494;11.356;2023-04-19T22:35:01;13.80;99.90
56761;DHT22;42633;44.494;11.356;2023-04-19T22:42:07;14.00;99.90
56761;DHT22;42633;44.494;11.356;2023-04-19T22:45:22;14.00;99.90
56761;DHT22;42633;44.494;11.356;2023-04-19T22:48:51;14.10;99.90
56761;DHT22;42633;44.494;11.356;2023-04-19T22:52:04;14.20;99.90
56761;DHT22;42633;44.494;11.356;2023-04-19T22:55:14;14.20;99.90
56761;DHT22;42633;44.494;11.356;2023-04-19T22:58:30;14.20;99.90
56761;DHT22;42633;44.494;11.356;2023-04-19T23:01:52;14.20;99.90
56761;DHT22;42633;44.494;11.356;2023-04-19T23:04:57;14.20;99.90
56761;DHT22;42633;44.494;11.356;2023-04-19T23:08:06;14.20;99.90
56761;DHT22;42633;44.494;11.356;2023-04-19T23:11:20;14.20;99.90
56761;DHT22;42633;44.494;11.356;2023-04-19T23:14:37;14.10;99.90
56761;DHT22;42633;44.494;11.356;2023-04-19T23:17:50;14.10;99.90
56761;DHT22;42633;44.494;11.356;2023-04-19T23:20:58;14.20;99.90
56761;DHT22;42633;44.494;11.356;2023-04-19T23:24:08;14.20;99.90
56761;DHT22;42633;44.494;11.356;2023-04-19T23:27:23;14.20;99.90
56761;DHT22;42633;44.494;11.356;2023-04-19T23:30:27;14.20;99.90
56761;DHT22;42633;44.494;11.356;2023-04-19T23:33:34;14.30;99.90
56761;DHT22;42633;44.494;11.356;2023-04-19T23:36:42;14.30;99.90
56761;DHT22;42633;44.494;11.356;2023-04-19T23:39:50;14.20;99.90
56761;DHT22;42633;44.494;11.356;2023-04-19T23:43:03;14.20;99.90
56761;DHT22;42633;44.494;11.356;2023-04-19T23:46:11;14.20;99.90
56761;DHT22;42633;44.494;11.356;2023-04-19T23:49:15;14.20;99.90
56761;DHT22;42633;44.494;11.356;2023-04-19T23:52:25;14.20;99.90
56761;DHT22;42633;44.494;11.356;2023-04-19T23:55:40;14.20;99.90
56761;DHT22;42633;44.494;11.356;2023-04-19T23:58:46;14.00;99.90
